Time;durP1;ratioP1;P1;durP2;ratioP2;P2;SDS_P1;SDS_P2;PMS_P1;PMS_P2;Temp;Humidity;BMP_temperature;BMP_pressure;BME280_temperature;BME280_humidity;BME280_pressure;Samples;Min_cycle;Max_cycle;Signal;HPM_P1;HPM_P2
2020/12/08 00:00:29;;;;;;;14.63;10.93;;;;;;;6.65;98.00;94498.66;5138812;27;20452;-83
2020/12/08 00:02:55;;;;;;;17.20;11.23;;;;;;;6.68;98.16;94495.84;5138036;27;21005;-83
2020/12/08 00:05:22;;;;;;;15.13;11.43;;;;;;;6.66;98.33;94497.75;5138758;27;20874;-83
2020/12/08 00:07:49;;;;;;;25.20;16.17;;;;;;;6.65;98.17;94499.53;5138397;27;20426;-83
2020/12/08 00:10:19;;;;;;;26.30;15.60;;;;;;;6.65;97.96;94503.88;5138206;27;20555;-83
2020/12/08 00:12:45;;;;;;;18.50;12.77;;;;;;;6.68;97.80;94499.28;5138915;27;20495;-83
2020/12/08 00:15:13;;;;;;;17.27;12.27;;;;;;;6.69;98.10;94506.16;5138127;27;20437;-83
2020/12/08 00:17:39;;;;;;;17.87;11.90;;;;;;;6.71;96.90;94501.66;5138216;27;20442;-83
2020/12/08 00:20:07;;;;;;;20.93;11.80;;;;;;;6.74;97.34;94505.81;5138635;27;20437;-83
2020/12/08 00:22:33;;;;;;;21.83;15.07;;;;;;;6.76;97.75;94504.75;5137835;27;20469;-83
2020/12/08 00:25:00;;;;;;;23.37;15.40;;;;;;;6.80;97.55;94511.38;5138230;27;20815;-83
2020/12/08 00:27:26;;;;;;;23.27;15.00;;;;;;;6.77;96.82;94516.00;5137871;27;20434;-83
2020/12/08 00:29:52;;;;;;;18.40;13.03;;;;;;;6.75;96.49;94513.53;5137628;27;20808;-83
2020/12/08 00:32:19;;;;;;;21.53;13.70;;;;;;;6.75;96.63;94518.72;5137594;27;20464;-83
2020/12/08 00:34:46;;;;;;;22.13;14.13;;;;;;;6.67;96.17;94520.28;5137824;27;20433;-83
2020/12/08 00:37:12;;;;;;;22.10;14.23;;;;;;;6.63;96.81;94518.81;5137293;27;20478;-83
2020/12/08 00:39:38;;;;;;;17.90;12.37;;;;;;;6.56;96.14;94517.63;5137760;27;20442;-83
2020/12/08 00:42:06;;;;;;;18.70;10.90;;;;;;;6.53;96.91;94518.69;5137071;27;20976;-83
2020/12/08 00:44:32;;;;;;;13.77;10.53;;;;;;;6.56;97.06;94518.44;5137804;27;20513;-83
2020/12/08 00:46:59;;;;;;;17.20;12.13;;;;;;;6.52;97.43;94522.22;5137167;27;20438;-83
2020/12/08 00:49:26;;;;;;;18.30;13.63;;;;;;;6.57;97.36;94530.53;5137251;27;20916;-83
2020/12/08 00:51:56;;;;;;;18.63;13.03;;;;;;;6.58;97.43;94526.97;5137094;27;20446;-83
2020/12/08 00:54:22;;;;;;;19.47;13.50;;;;;;;6.61;97.21;94528.53;5139110;27;20429;-83
2020/12/08 00:56:49;;;;;;;17.53;12.70;;;;;;;6.62;97.39;94531.00;5141906;27;20449;-84
2020/12/08 00:59:15;;;;;;;24.57;14.60;;;;;;;6.61;96.88;94531.13;5139203;27;20844;-83
2020/12/08 01:01:41;;;;;;;22.50;14.97;;;;;;;6.59;97.37;94531.25;5137306;27;20473;-84
2020/12/08 01:04:09;;;;;;;19.10;12.73;;;;;;;6.64;97.60;94530.91;5139139;27;20441;-83
2020/12/08 01:06:37;;;;;;;20.60;14.57;;;;;;;6.55;96.97;94527.22;5140133;27;20437;-83
2020/12/08 01:09:06;;;;;;;23.00;14.83;;;;;;;6.58;97.77;94529.59;5141685;27;20430;-83
2020/12/08 01:11:32;;;;;;;19.53;13.27;;;;;;;6.57;96.83;94535.75;5138635;27;20446;-83
2020/12/08 01:13:59;;;;;;;16.60;11.87;;;;;;;6.53;96.79;94544.75;5139089;27;20444;-83
2020/12/08 01:16:25;;;;;;;17.60;13.07;;;;;;;6.44;97.30;94542.84;5136769;27;20446;-83
2020/12/08 01:18:51;;;;;;;21.27;12.80;;;;;;;6.38;97.50;94551.13;5136773;27;20449;-83
2020/12/08 01:21:18;;;;;;;12.80;10.13;;;;;;;6.33;98.00;94540.16;5137108;27;20477;-83
2020/12/08 01:23:45;;;;;;;13.30;9.70;;;;;;;6.31;97.97;94544.66;5136758;27;20449;-83
2020/12/08 01:26:12;;;;;;;10.57;9.27;;;;;;;6.29;98.57;94543.94;5136696;27;20429;-83
2020/12/08 01:28:40;;;;;;;12.37;10.00;;;;;;;6.20;98.40;94538.47;5136086;27;20854;-83
2020/12/08 01:31:06;;;;;;;12.27;9.20;;;;;;;6.15;98.02;94534.56;5136451;27;20468;-84
2020/12/08 01:33:32;;;;;;;12.63;9.20;;;;;;;6.19;98.68;94539.44;5136502;27;20909;-83
2020/12/08 01:35:59;;;;;;;9.30;8.33;;;;;;;6.24;99.15;94538.25;5136319;27;20441;-83
2020/12/08 01:38:25;;;;;;;13.40;9.00;;;;;;;6.28;98.91;94537.91;5135994;27;20820;-83
2020/12/08 01:40:55;;;;;;;11.53;8.57;;;;;;;6.31;99.12;94537.69;5136365;27;20433;-83
2020/12/08 01:43:22;;;;;;;9.23;8.33;;;;;;;6.20;98.49;94538.47;5136256;27;20446;-83
2020/12/08 01:45:48;;;;;;;10.73;8.10;;;;;;;6.19;98.73;94541.19;5136248;27;20460;-83
2020/12/08 01:48:15;;;;;;;10.00;7.90;;;;;;;6.21;97.95;94531.50;5135984;27;20436;-83
2020/12/08 01:50:42;;;;;;;9.43;7.30;;;;;;;6.18;98.30;94535.16;5135719;27;20434;-83
2020/12/08 01:53:10;;;;;;;9.20;6.43;;;;;;;6.22;98.29;94536.59;5136348;27;20438;-83
2020/12/08 01:55:38;;;;;;;10.10;7.00;;;;;;;6.28;98.15;94534.47;5135894;27;20811;-83
2020/12/08 01:58:14;;;;;;;14.20;7.73;;;;;;;6.29;98.22;94536.13;5135691;27;20438;-83
2020/12/08 02:00:40;;;;;;;7.03;6.33;;;;;;;6.36;98.52;94535.59;5135828;27;20437;-83
2020/12/08 02:03:07;;;;;;;8.23;6.77;;;;;;;6.39;98.09;94542.34;5135525;27;20489;-83
2020/12/08 02:05:33;;;;;;;8.27;6.73;;;;;;;6.40;97.48;94544.84;5136033;27;20510;-83
2020/12/08 02:07:59;;;;;;;9.50;7.57;;;;;;;6.37;97.63;94536.41;5135613;27;20440;-83
2020/12/08 02:10:26;;;;;;;16.90;8.40;;;;;;;6.34;97.89;94537.44;5135681;27;20433;-84
2020/12/08 02:12:52;;;;;;;15.67;10.33;;;;;;;6.35;97.52;94533.06;5135352;27;20937;-83
2020/12/08 02:15:19;;;;;;;15.17;9.87;;;;;;;6.33;97.24;94534.97;5136067;27;20437;-83
2020/12/08 02:17:46;;;;;;;9.27;8.27;;;;;;;6.26;97.06;94536.38;5135680;27;20444;-83
2020/12/08 02:20:13;;;;;;;12.30;8.87;;;;;;;6.25;98.36;94535.53;5135450;27;20434;-83
2020/12/08 02:22:42;;;;;;;12.20;9.03;;;;;;;6.19;98.53;94536.81;5135288;27;20474;-83
2020/12/08 02:25:09;;;;;;;13.70;9.40;;;;;;;6.19;97.92;94531.63;5135520;27;20441;-83
2020/12/08 02:27:35;;;;;;;15.40;8.53;;;;;;;6.14;98.34;94531.13;5135382;27;20441;-83
2020/12/08 02:30:04;;;;;;;14.47;9.73;;;;;;;6.14;98.13;94531.13;5135440;27;20458;-83
2020/12/08 02:32:30;;;;;;;14.87;10.23;;;;;;;6.19;98.78;94536.81;5135507;27;20517;-82
2020/12/08 02:34:57;;;;;;;16.80;10.90;;;;;;;6.12;98.59;94545.22;5135313;27;20433;-83
2020/12/08 02:37:24;;;;;;;20.90;10.17;;;;;;;6.08;98.04;94542.00;5135146;27;20453;-83
2020/12/08 02:39:50;;;;;;;14.77;9.40;;;;;;;6.03;98.46;94536.25;5135283;27;20516;-82
2020/12/08 02:42:18;;;;;;;11.80;9.20;;;;;;;6.05;98.76;94538.75;5135149;27;20469;-83
2020/12/08 02:44:44;;;;;;;15.73;10.07;;;;;;;6.01;98.48;94538.16;5135551;27;20542;-83
2020/12/08 02:47:11;;;;;;;14.93;8.60;;;;;;;6.02;98.92;94533.78;5135167;27;20437;-83
2020/12/08 02:49:37;;;;;;;12.53;9.40;;;;;;;6.03;98.85;94536.25;5135239;27;20448;-83
2020/12/08 02:52:04;;;;;;;15.90;9.10;;;;;;;6.00;98.51;94539.09;5135067;28;20804;-83
2020/12/08 02:54:31;;;;;;;12.27;9.30;;;;;;;6.06;99.65;94530.00;5135441;28;20430;-83
2020/12/08 02:57:01;;;;;;;9.83;8.20;;;;;;;6.07;98.82;94531.66;5137950;28;20449;-82
2020/12/08 02:59:27;;;;;;;12.20;7.90;;;;;;;6.07;98.62;94529.06;5134922;28;20444;-83
2020/12/08 03:01:55;;;;;;;13.50;8.43;;;;;;;6.07;99.31;94529.91;5134939;28;20504;-83
2020/12/08 03:04:21;;;;;;;10.63;7.77;;;;;;;5.98;98.98;94514.94;5134954;28;20438;-83
2020/12/08 03:06:48;;;;;;;16.27;8.80;;;;;;;6.00;99.64;94518.25;5135081;28;20446;-83
2020/12/08 03:09:14;;;;;;;9.30;7.10;;;;;;;6.07;99.59;94516.03;5135021;28;20433;-83
2020/12/08 03:11:41;;;;;;;9.70;7.50;;;;;;;6.14;99.38;94525.91;5138023;27;20800;-83
2020/12/08 03:14:08;;;;;;;12.53;7.70;;;;;;;6.21;99.63;94523.69;5139259;27;20425;-82
2020/12/08 03:16:34;;;;;;;10.43;7.50;;;;;;;6.26;99.22;94525.94;5138856;27;20438;-83
2020/12/08 03:19:01;;;;;;;11.00;8.27;;;;;;;6.30;99.67;94520.38;5139040;27;20447;-83
2020/12/08 03:21:27;;;;;;;12.83;8.57;;;;;;;6.34;98.82;94531.41;5138655;27;20440;-82
2020/12/08 03:23:54;;;;;;;9.50;6.93;;;;;;;6.33;98.48;94535.78;5139242;27;20429;-82
2020/12/08 03:26:21;;;;;;;10.90;8.10;;;;;;;6.34;98.56;94539.22;5138828;27;20430;-83
2020/12/08 03:28:48;;;;;;;10.80;7.30;;;;;;;6.34;98.62;94536.63;5139038;27;20445;-83
2020/12/08 03:31:15;;;;;;;11.23;6.43;;;;;;;6.38;97.87;94541.53;5138857;27;20434;-83
2020/12/08 03:33:41;;;;;;;13.77;8.60;;;;;;;6.38;98.33;94533.69;5139134;27;20460;-83
2020/12/08 03:36:11;;;;;;;9.67;7.30;;;;;;;6.37;97.58;94532.03;5138745;27;20434;-83
2020/12/08 03:38:38;;;;;;;11.03;7.80;;;;;;;6.33;97.08;94532.34;5138538;27;20817;-82
2020/12/08 03:41:04;;;;;;;14.27;8.00;;;;;;;6.33;97.08;94527.97;5138870;27;20441;-83
2020/12/08 03:43:30;;;;;;;14.30;9.40;;;;;;;6.22;97.19;94536.59;5138499;27;20972;-83
2020/12/08 03:45:58;;;;;;;20.07;8.70;;;;;;;6.24;97.84;94535.66;5138263;27;20444;-83
2020/12/08 03:48:24;;;;;;;14.83;10.33;;;;;;;6.15;97.28;94538.00;5138672;27;20445;-82
2020/12/08 03:50:50;;;;;;;19.40;9.07;;;;;;;6.12;98.01;94543.44;5138594;27;20433;-83
2020/12/08 03:53:17;;;;;;;14.60;10.07;;;;;;;6.15;98.60;94545.81;5138957;27;20445;-82
2020/12/08 03:55:43;;;;;;;13.40;8.80;;;;;;;6.20;99.49;94554.13;5138272;27;20761;-82
2020/12/08 03:58:09;;;;;;;17.17;10.00;;;;;;;6.23;99.36;94558.25;5138435;27;20438;-83
2020/12/08 04:00:36;;;;;;;12.57;7.30;;;;;;;6.28;98.67;94561.34;5138029;27;20920;-83
2020/12/08 04:03:03;;;;;;;12.90;8.87;;;;;;;6.30;98.84;94566.47;5138182;27;20564;-82
2020/12/08 04:05:29;;;;;;;18.70;10.37;;;;;;;6.27;97.42;94567.50;5138282;27;20466;-82
2020/12/08 04:07:56;;;;;;;15.77;10.77;;;;;;;6.16;97.04;94573.53;5138153;27;20843;-83
2020/12/08 04:10:22;;;;;;;9.50;7.00;;;;;;;6.03;96.18;94572.72;5138104;27;20436;-82
2020/12/08 04:12:48;;;;;;;15.03;10.37;;;;;;;5.97;96.75;94583.59;5137834;27;20528;-83
2020/12/08 04:15:15;;;;;;;15.20;11.63;;;;;;;5.88;96.85;94584.22;5138058;27;20786;-82
2020/12/08 04:17:41;;;;;;;13.83;8.27;;;;;;;5.90;97.70;94584.97;5138094;27;20524;-83
2020/12/08 04:20:08;;;;;;;10.17;7.47;;;;;;;5.85;97.61;94584.44;5138145;27;20809;-82
2020/12/08 04:22:35;;;;;;;9.80;7.90;;;;;;;5.87;96.76;94592.97;5136722;27;20481;-82
2020/12/08 04:25:01;;;;;;;7.30;6.60;;;;;;;5.95;97.64;94601.09;5138010;27;20446;-82
2020/12/08 04:27:28;;;;;;;11.30;8.30;;;;;;;5.99;97.04;94597.34;5137564;27;20538;-82
2020/12/08 04:29:54;;;;;;;12.30;7.27;;;;;;;5.96;96.12;94592.34;5137602;27;20975;-83
2020/12/08 04:32:20;;;;;;;5.63;5.03;;;;;;;5.96;96.44;94592.34;5137772;27;20437;-82
2020/12/08 04:34:47;;;;;;;7.10;6.13;;;;;;;5.97;96.77;94587.97;5137720;27;20442;-82
2020/12/08 04:37:14;;;;;;;10.67;7.00;;;;;;;6.02;96.52;94584.09;5137277;27;20805;-83
2020/12/08 04:39:40;;;;;;;8.33;6.70;;;;;;;6.06;96.97;94582.91;5137517;27;20520;-83
2020/12/08 04:42:07;;;;;;;6.50;5.47;;;;;;;6.10;97.38;94583.56;5137755;27;20481;-83
2020/12/08 04:44:34;;;;;;;7.30;5.03;;;;;;;6.18;96.70;94587.25;5137433;27;20782;-83
2020/12/08 04:47:05;;;;;;;8.40;6.33;;;;;;;6.24;96.23;94590.34;5137407;27;20430;-82
2020/12/08 04:49:31;;;;;;;8.30;7.00;;;;;;;6.31;96.56;94594.19;5137591;27;20444;-82
2020/12/08 04:51:58;;;;;;;12.20;9.07;;;;;;;6.34;95.70;94586.13;5137161;27;20441;-83
2020/12/08 04:54:25;;;;;;;14.23;9.40;;;;;;;6.37;95.96;94585.94;5137251;27;20513;-83
2020/12/08 04:56:52;;;;;;;12.57;8.97;;;;;;;6.38;95.33;94587.59;5137274;27;20524;-82
2020/12/08 04:59:21;;;;;;;16.57;9.70;;;;;;;6.43;95.19;94588.09;5137628;27;20446;-83
2020/12/08 05:01:48;;;;;;;11.30;8.80;;;;;;;6.42;95.55;94587.25;5137291;27;20469;-82
2020/12/08 05:04:23;;;;;;;12.97;9.37;;;;;;;6.47;95.85;94584.31;5137979;27;20438;-82
2020/12/08 05:07:01;;;;;;;14.63;10.50;;;;;;;6.52;96.51;94587.41;5136829;27;20434;-83
2020/12/08 05:09:29;;;;;;;17.50;15.10;;;;;;;6.57;96.27;94590.50;5136848;27;20917;-82
2020/12/08 05:11:56;;;;;;;14.13;11.43;;;;;;;6.55;95.47;94586.34;5136942;27;20442;-82
2020/12/08 05:14:23;;;;;;;13.17;11.23;;;;;;;6.58;96.18;94586.94;5136674;27;20502;-82
2020/12/08 05:16:49;;;;;;;13.70;11.27;;;;;;;6.60;95.96;94587.66;5136673;27;20434;-82
2020/12/08 05:19:15;;;;;;;20.00;12.57;;;;;;;6.64;96.20;94593.47;5136778;27;20957;-83
2020/12/08 05:21:49;;;;;;;11.03;8.90;;;;;;;6.66;95.81;94587.22;5136836;27;20441;-83
2020/12/08 05:24:25;;;;;;;10.40;8.27;;;;;;;6.67;95.26;94599.31;5136525;27;20434;-82
2020/12/08 05:27:00;;;;;;;14.17;7.70;;;;;;;6.70;94.91;94599.09;5137070;27;20429;-82
2020/12/08 05:29:27;;;;;;;11.10;6.60;;;;;;;6.69;94.62;94589.59;5136162;27;20453;-83
2020/12/08 05:31:54;;;;;;;10.37;7.10;;;;;;;6.70;94.94;94593.03;5136447;27;20432;-83
2020/12/08 05:34:22;;;;;;;9.93;7.40;;;;;;;6.77;94.78;94599.44;5136597;27;20433;-83
2020/12/08 05:36:50;;;;;;;9.07;7.10;;;;;;;6.80;94.91;94599.22;5136118;27;20433;-82
2020/12/08 05:39:20;;;;;;;12.40;7.43;;;;;;;6.79;95.11;94601.00;5137080;27;20968;-82
2020/12/08 05:41:48;;;;;;;17.00;11.33;;;;;;;6.81;94.68;94608.69;5136474;27;20489;-82
2020/12/08 05:44:23;;;;;;;22.30;14.27;;;;;;;6.80;95.01;94614.88;5136407;27;20430;-83
2020/12/08 05:46:51;;;;;;;18.17;11.70;;;;;;;6.76;94.68;94611.66;5136347;27;20455;-83
2020/12/08 05:49:17;;;;;;;18.10;11.30;;;;;;;6.78;94.82;94612.38;5135969;27;20491;-83
2020/12/08 05:51:45;;;;;;;17.57;11.67;;;;;;;6.80;95.03;94609.66;5135374;27;20488;-82
2020/12/08 05:54:17;;;;;;;21.53;13.23;;;;;;;6.81;94.48;94622.56;5136317;27;20448;-82
2020/12/08 05:56:43;;;;;;;22.07;12.67;;;;;;;6.79;95.21;94618.41;5135953;27;20457;-83
2020/12/08 05:59:10;;;;;;;15.40;10.77;;;;;;;6.78;95.03;94614.97;5134340;27;20823;-84
2020/12/08 06:01:48;;;;;;;18.43;10.67;;;;;;;6.80;94.88;94609.66;5133961;27;20437;-83
2020/12/08 06:04:14;;;;;;;14.13;10.70;;;;;;;6.82;95.27;94612.97;5133956;27;20433;-83
2020/12/08 06:06:51;;;;;;;15.77;10.93;;;;;;;6.83;95.12;94607.63;5132099;27;20507;-83
2020/12/08 06:09:28;;;;;;;20.43;12.10;;;;;;;6.84;94.55;94614.50;5135544;27;20437;-83
2020/12/08 06:11:54;;;;;;;18.87;12.23;;;;;;;6.79;95.43;94615.81;5135758;27;20939;-84
2020/12/08 06:14:35;;;;;;;20.10;10.30;;;;;;;6.86;96.26;94627.44;5135811;27;20445;-82
2020/12/08 06:17:04;;;;;;;17.40;10.50;;;;;;;6.87;95.39;94620.44;5135594;27;20480;-82
2020/12/08 06:19:31;;;;;;;19.47;10.83;;;;;;;6.91;94.63;94627.91;5136135;27;20433;-80
2020/12/08 06:21:58;;;;;;;16.50;10.80;;;;;;;6.93;95.05;94630.41;5135670;27;20472;-81
2020/12/08 06:24:25;;;;;;;20.13;11.20;;;;;;;6.96;94.66;94631.03;5135760;27;20485;-81
2020/12/08 06:26:51;;;;;;;17.00;9.70;;;;;;;6.97;94.52;94639.69;5135621;27;20487;-81
2020/12/08 06:29:19;;;;;;;17.20;11.60;;;;;;;7.01;95.05;94638.53;5135138;27;20458;-83
2020/12/08 06:31:47;;;;;;;25.17;12.90;;;;;;;7.04;94.52;94651.34;5134554;27;20445;-83
2020/12/08 06:34:20;;;;;;;22.57;12.37;;;;;;;7.06;94.62;94641.63;5135005;27;20430;-82
2020/12/08 06:36:47;;;;;;;37.83;24.00;;;;;;;7.08;94.40;94650.16;5135031;27;20929;-82
2020/12/08 06:39:14;;;;;;;35.20;24.67;;;;;;;7.03;94.37;94654.88;5134927;27;20470;-83
2020/12/08 06:41:43;;;;;;;39.90;20.77;;;;;;;7.07;94.16;94653.72;5134867;27;20892;-83
2020/12/08 06:44:14;;;;;;;40.93;25.30;;;;;;;7.09;94.28;94657.88;5135366;27;20502;-81
2020/12/08 06:46:52;;;;;;;38.13;21.20;;;;;;;7.11;94.42;94665.56;5134229;27;20520;-82
2020/12/08 06:49:20;;;;;;;24.60;15.53;;;;;;;7.12;94.47;94669.84;5134934;27;20444;-84
2020/12/08 06:51:54;;;;;;;21.70;13.37;;;;;;;7.16;94.28;94668.66;5135761;27;20451;-84
2020/12/08 06:54:20;;;;;;;28.47;15.70;;;;;;;7.16;94.53;94679.09;5133042;28;20484;-84
2020/12/08 06:56:46;;;;;;;25.93;14.23;;;;;;;7.17;93.65;94667.72;5133118;28;20436;-84
2020/12/08 06:59:21;;;;;;;24.97;15.57;;;;;;;7.17;93.54;94680.75;5132725;28;20929;-84
2020/12/08 07:01:50;;;;;;;29.87;17.70;;;;;;;7.21;93.90;94683.97;5133521;28;20500;-82
2020/12/08 07:04:16;;;;;;;37.30;22.00;;;;;;;7.19;94.12;94676.25;5134514;28;20466;-82
2020/12/08 07:06:44;;;;;;;43.80;24.27;;;;;;;7.17;93.26;94691.19;5134772;28;20442;-82
2020/12/08 07:09:11;;;;;;;34.70;21.10;;;;;;;7.12;93.30;94699.38;5134424;28;20454;-82
2020/12/08 07:11:37;;;;;;;40.13;20.60;;;;;;;7.09;93.57;94694.38;5134850;28;20429;-82
2020/12/08 07:14:05;;;;;;;27.60;16.00;;;;;;;7.00;93.60;94695.09;5134216;28;20457;-83
2020/12/08 07:16:33;;;;;;;24.30;15.20;;;;;;;6.97;93.82;94695.31;5134997;28;20533;-83
2020/12/08 07:19:01;;;;;;;30.97;19.97;;;;;;;6.76;94.26;94694.25;5134461;28;20437;-84
2020/12/08 07:21:28;;;;;;;39.20;22.60;;;;;;;6.66;95.27;94701.94;5135420;28;20502;-84
2020/12/08 07:23:57;;;;;;;55.03;21.80;;;;;;;6.42;95.62;94704.53;5134688;28;20493;-83
2020/12/08 07:26:25;;;;;;;35.33;19.67;;;;;;;6.37;95.63;94704.03;5134635;28;20430;-84
2020/12/08 07:28:52;;;;;;;48.27;25.93;;;;;;;6.32;96.61;94692.25;5134034;28;20856;-85
2020/12/08 07:31:20;;;;;;;66.37;32.33;;;;;;;6.24;97.04;94698.00;5132747;28;20446;-86
2020/12/08 07:33:49;;;;;;;59.20;27.73;;;;;;;6.15;97.91;94696.91;5134514;28;20437;-84
2020/12/08 07:36:26;;;;;;;28.93;17.60;;;;;;;6.16;98.55;94711.59;5134675;28;20437;-83
2020/12/08 07:38:54;;;;;;;37.60;23.53;;;;;;;6.10;98.10;94714.63;5134283;28;20844;-83
2020/12/08 07:41:23;;;;;;;36.10;20.73;;;;;;;6.14;99.39;94704.81;5134672;28;20449;-84
2020/12/08 07:43:50;;;;;;;34.33;21.77;;;;;;;6.17;98.71;94704.59;5135705;28;20543;-83
2020/12/08 07:46:25;;;;;;;27.60;19.57;;;;;;;6.13;98.36;94704.00;5136208;28;20461;-91
2020/12/08 07:49:03;;;;;;;27.53;17.77;;;;;;;6.05;97.84;94713.25;5136624;28;20854;-81
2020/12/08 07:51:31;;;;;;;31.58;20.42;;;;;;;6.07;97.88;94713.97;5131435;28;20468;-84
2020/12/08 07:53:59;;;;;;;26.63;19.00;;;;;;;5.96;97.80;94712.13;5133754;28;20295;-82
2020/12/08 07:56:28;;;;;;;32.03;18.67;;;;;;;6.01;98.01;94707.44;5133855;27;20492;-83
2020/12/08 07:58:55;;;;;;;30.43;17.67;;;;;;;6.09;97.78;94709.53;5137422;27;20770;-86
2020/12/08 08:01:22;;;;;;;27.97;17.40;;;;;;;6.14;97.51;94721.28;5138753;27;20498;-86
2020/12/08 08:03:48;;;;;;;17.30;14.93;;;;;;;6.09;97.29;94717.34;5138122;27;20475;-84
2020/12/08 08:06:17;;;;;;;20.33;15.10;;;;;;;6.09;96.67;94718.19;5137785;27;20437;-84
2020/12/08 08:08:43;;;;;;;22.93;14.97;;;;;;;6.18;97.39;94714.91;5137843;27;20473;-87
2020/12/08 08:11:09;;;;;;;23.23;15.47;;;;;;;6.05;97.41;94713.25;5138093;27;20473;-85
2020/12/08 08:13:37;;;;;;;26.80;16.27;;;;;;;6.18;98.33;94721.91;5137360;27;20960;-84
2020/12/08 08:16:03;;;;;;;24.93;17.07;;;;;;;6.25;97.92;94722.28;5137634;27;20944;-84
2020/12/08 08:18:31;;;;;;;28.70;18.07;;;;;;;6.31;96.62;94724.47;5137645;27;20480;-85
2020/12/08 08:20:59;;;;;;;23.40;16.50;;;;;;;6.31;96.73;94727.91;5138359;27;20453;-86
2020/12/08 08:23:26;;;;;;;24.57;16.87;;;;;;;6.33;96.27;94733.00;5138252;27;20474;-85
2020/12/08 08:25:52;;;;;;;25.33;15.20;;;;;;;6.15;96.01;94729.94;5138061;27;20535;-84
2020/12/08 08:28:20;;;;;;;24.83;14.30;;;;;;;6.28;95.48;94730.72;5138126;27;20462;-83
2020/12/08 08:30:47;;;;;;;23.63;13.70;;;;;;;6.33;96.10;94735.59;5137628;27;20445;-84
2020/12/08 08:33:13;;;;;;;21.07;14.50;;;;;;;6.39;95.64;94740.41;5138151;27;20859;-84
2020/12/08 08:35:40;;;;;;;23.80;13.70;;;;;;;6.52;96.39;94741.19;5137564;27;20959;-83
2020/12/08 08:38:07;;;;;;;20.73;13.97;;;;;;;6.49;96.64;94736.19;5137115;27;20537;-84
2020/12/08 08:40:33;;;;;;;31.07;14.83;;;;;;;6.47;96.07;94748.50;5136098;27;20447;-85
2020/12/08 08:43:24;;;;;;;28.90;16.87;;;;;;;6.45;95.58;94743.41;5141207;27;20551;-89
2020/12/08 08:45:52;;;;;;;29.97;18.67;;;;;;;6.40;95.56;94744.69;5138790;27;20454;-83
2020/12/08 08:48:20;;;;;;;26.10;17.63;;;;;;;6.46;96.04;94746.84;5136003;27;20533;-84
2020/12/08 08:50:47;;;;;;;30.50;17.60;;;;;;;6.51;96.13;94739.53;5140353;27;20446;-84
2020/12/08 08:53:14;;;;;;;34.10;19.43;;;;;;;6.63;95.84;94743.84;5141825;27;20439;-82
2020/12/08 08:55:41;;;;;;;30.20;18.80;;;;;;;6.74;95.19;94749.13;5136766;27;20457;-82
2020/12/08 08:58:08;;;;;;;37.53;20.80;;;;;;;6.70;94.69;94733.84;5136619;27;20980;-83
2020/12/08 09:00:35;;;;;;;28.67;18.83;;;;;;;6.81;94.82;94739.09;5140241;27;20873;-85
2020/12/08 09:03:05;;;;;;;35.60;20.23;;;;;;;6.87;94.81;94745.63;5139487;27;20481;-87
2020/12/08 09:05:32;;;;;;;37.80;19.30;;;;;;;6.89;94.41;94743.75;5121454;27;20426;-83
2020/12/08 09:07:59;;;;;;;31.10;19.50;;;;;;;6.84;93.09;94736.25;5135782;27;20453;-84
2020/12/08 09:10:26;;;;;;;30.47;18.80;;;;;;;6.80;93.49;94742.66;5118830;27;20438;-83
2020/12/08 09:12:53;;;;;;;32.57;20.70;;;;;;;6.81;93.68;94739.91;5104145;27;20471;-84
2020/12/08 09:15:21;;;;;;;26.13;17.50;;;;;;;6.87;94.08;94737.81;5119522;27;20494;-84
2020/12/08 09:17:47;;;;;;;25.87;17.40;;;;;;;6.91;94.45;94741.84;5136589;27;20448;-84
2020/12/08 09:20:15;;;;;;;35.00;19.57;;;;;;;6.99;94.31;94729.09;5136545;27;20904;-85
2020/12/08 09:22:42;;;;;;;30.93;18.97;;;;;;;7.05;94.22;94729.47;5136483;27;20485;-85
2020/12/08 09:25:09;;;;;;;26.97;17.17;;;;;;;7.09;93.55;94730.09;5136740;27;20433;-85
2020/12/08 09:27:35;;;;;;;31.87;18.67;;;;;;;7.21;94.49;94734.38;5136259;27;20494;-85
2020/12/08 09:30:02;;;;;;;33.13;18.90;;;;;;;7.14;92.82;94727.97;5138628;27;20498;-85
2020/12/08 09:32:29;;;;;;;39.97;24.83;;;;;;;7.26;92.84;94727.06;5138393;27;20983;-83
2020/12/08 09:34:58;;;;;;;30.77;20.57;;;;;;;7.30;93.58;94717.22;5136938;27;20434;-84
2020/12/08 09:37:26;;;;;;;34.20;20.37;;;;;;;7.22;92.17;94715.16;5137325;27;20508;-84
2020/12/08 09:39:52;;;;;;;34.20;21.80;;;;;;;7.30;92.55;94718.06;5136769;27;20466;-84
2020/12/08 09:42:19;;;;;;;39.47;21.33;;;;;;;7.45;94.65;94718.69;5136275;27;20493;-83
2020/12/08 09:44:47;;;;;;;33.37;22.30;;;;;;;7.56;95.56;94712.66;5135826;27;20847;-88
2020/12/08 09:47:15;;;;;;;34.07;22.40;;;;;;;7.64;93.94;94718.97;5136567;27;20488;-84
2020/12/08 09:49:42;;;;;;;36.47;23.13;;;;;;;7.76;94.24;94723.22;5136335;27;20430;-84
2020/12/08 09:52:08;;;;;;;32.13;20.60;;;;;;;7.88;92.55;94723.25;5136309;27;20508;-84
2020/12/08 09:54:36;;;;;;;35.67;22.03;;;;;;;7.97;91.65;94712.09;5136139;27;20431;-84
2020/12/08 09:57:02;;;;;;;36.83;22.77;;;;;;;7.99;90.67;94711.03;5135694;27;20439;-85
2020/12/08 09:59:35;;;;;;;31.10;21.37;;;;;;;8.03;90.25;94706.38;5136323;27;20891;-84
2020/12/08 10:02:02;;;;;;;31.50;21.80;;;;;;;8.05;89.13;94714.94;5136662;27;20451;-84
2020/12/08 10:04:29;;;;;;;36.77;21.50;;;;;;;8.04;89.55;94708.88;5139476;27;20906;-84
2020/12/08 10:06:55;;;;;;;29.30;19.77;;;;;;;8.05;89.62;94713.16;5136172;27;20437;-84
2020/12/08 10:09:22;;;;;;;19.30;15.30;;;;;;;8.01;89.71;94706.50;5137153;27;20442;-84
2020/12/08 10:11:49;;;;;;;24.13;16.00;;;;;;;8.03;88.62;94706.38;5137291;27;20951;-84
2020/12/08 10:14:15;;;;;;;31.17;19.60;;;;;;;7.90;88.53;94711.75;5135724;27;20457;-83
2020/12/08 10:16:42;;;;;;;34.30;16.90;;;;;;;7.62;88.55;94713.03;5135439;27;20449;-84
2020/12/08 10:19:09;;;;;;;25.13;18.63;;;;;;;7.70;89.93;94713.25;5135869;27;20518;-84
2020/12/08 10:21:35;;;;;;;33.90;21.43;;;;;;;7.76;90.71;94717.19;5135020;27;20435;-84
2020/12/08 10:24:03;;;;;;;31.17;21.67;;;;;;;7.79;91.67;94719.56;5135789;27;20466;-84
2020/12/08 10:26:29;;;;;;;32.83;20.47;;;;;;;7.80;90.87;94716.00;5135300;27;20454;-84
2020/12/08 10:28:57;;;;;;;38.00;22.47;;;;;;;7.84;90.55;94720.06;5135673;27;20918;-84
2020/12/08 10:31:26;;;;;;;36.57;23.40;;;;;;;7.77;89.36;94718.84;5138698;27;20428;-84
2020/12/08 10:33:52;;;;;;;43.43;24.57;;;;;;;7.51;89.97;94719.97;5136528;27;20516;-84
2020/12/08 10:36:19;;;;;;;45.33;25.97;;;;;;;7.56;89.75;94721.31;5135669;27;20767;-84
2020/12/08 10:38:46;;;;;;;42.37;25.83;;;;;;;7.59;90.72;94712.44;5135996;27;20464;-84
2020/12/08 10:41:13;;;;;;;37.80;23.57;;;;;;;7.53;90.59;94710.28;5135652;27;20438;-84
2020/12/08 10:43:40;;;;;;;35.77;24.43;;;;;;;7.61;90.91;94707.91;5135544;27;20480;-84
2020/12/08 10:46:07;;;;;;;39.00;24.13;;;;;;;7.53;91.35;94700.69;5135626;27;20764;-84
2020/12/08 10:48:33;;;;;;;39.90;22.93;;;;;;;7.35;91.54;94708.09;5135328;27;20437;-84
2020/12/08 10:51:00;;;;;;;43.37;25.30;;;;;;;7.32;91.70;94704.91;5135483;27;20576;-83
2020/12/08 10:53:26;;;;;;;36.50;22.10;;;;;;;7.22;91.45;94694.28;5135712;27;20438;-83
2020/12/08 10:55:52;;;;;;;38.63;23.77;;;;;;;7.28;91.33;94701.69;5135550;28;20442;-84
2020/12/08 10:58:19;;;;;;;33.70;21.80;;;;;;;7.44;92.10;94691.75;5135295;28;20441;-83
2020/12/08 11:00:45;;;;;;;42.87;22.83;;;;;;;7.51;91.96;94699.09;5135464;28;20526;-84
2020/12/08 11:03:12;;;;;;;39.13;21.63;;;;;;;7.48;91.01;94705.38;5135721;28;20466;-84
2020/12/08 11:05:39;;;;;;;37.07;22.20;;;;;;;7.45;91.17;94696.00;5136082;28;20450;-83
2020/12/08 11:08:05;;;;;;;37.97;22.27;;;;;;;7.64;92.08;94711.13;5134970;28;20525;-84
2020/12/08 11:10:32;;;;;;;29.90;20.07;;;;;;;7.72;92.30;94703.53;5135947;28;20442;-83
2020/12/08 11:12:59;;;;;;;29.30;20.27;;;;;;;7.88;92.69;94699.75;5135516;28;20446;-84
2020/12/08 11:15:25;;;;;;;32.10;20.90;;;;;;;8.04;92.19;94698.44;5139383;28;20431;-83
2020/12/08 11:17:51;;;;;;;31.40;20.37;;;;;;;8.22;91.98;94695.34;5136440;28;20447;-84
2020/12/08 11:20:19;;;;;;;32.57;20.17;;;;;;;8.37;89.94;94694.13;5136317;28;20442;-83
2020/12/08 11:22:46;;;;;;;39.23;23.73;;;;;;;8.49;89.05;94703.63;5135382;28;20562;-83
2020/12/08 11:25:12;;;;;;;28.73;17.97;;;;;;;8.55;88.87;94690.06;5135453;27;20975;-84
2020/12/08 11:27:38;;;;;;;26.33;17.60;;;;;;;8.66;88.22;94700.50;5135152;28;20436;-83
2020/12/08 11:30:06;;;;;;;23.50;12.63;;;;;;;8.64;87.73;94681.47;5134975;28;20447;-83